createdAt,value
2022-09-25T00:00:17.343Z,0
2022-09-25T00:01:18.279Z,0
2022-09-25T00:02:18.542Z,0
2022-09-25T00:03:18.603Z,0
2022-09-25T00:04:18.734Z,0
2022-09-25T00:05:19.354Z,0
2022-09-25T00:06:19.967Z,0
2022-09-25T00:07:21.284Z,0
2022-09-25T00:08:22.228Z,0
2022-09-25T00:09:22.650Z,0
2022-09-25T00:10:22.866Z,0
2022-09-25T00:11:23.539Z,0
2022-09-25T00:12:24.039Z,0
2022-09-25T00:13:24.241Z,0
2022-09-25T00:14:25.134Z,0
2022-09-25T00:15:26.351Z,0
2022-09-25T00:16:26.500Z,0
2022-09-25T00:17:26.869Z,0
2022-09-25T00:18:27.074Z,0
2022-09-25T00:19:27.360Z,0
2022-09-25T00:20:27.997Z,0
2022-09-25T00:21:29.219Z,0
2022-09-25T00:22:29.140Z,0
2022-09-25T00:23:29.636Z,0
2022-09-25T00:24:29.615Z,0
2022-09-25T00:25:30.531Z,0
2022-09-25T00:26:31.481Z,0
2022-09-25T00:27:31.682Z,0
2022-09-25T00:28:32.025Z,0
2022-09-25T00:29:33.144Z,0
2022-09-25T00:30:34.289Z,0
2022-09-25T00:31:34.738Z,0
2022-09-25T00:32:35.635Z,0
2022-09-25T00:33:35.552Z,0
2022-09-25T00:34:36.491Z,0
2022-09-25T00:35:37.708Z,0
2022-09-25T00:36:37.630Z,0
2022-09-25T00:37:38.551Z,0
2022-09-25T00:38:39.463Z,0
2022-09-25T00:39:40.230Z,0
2022-09-25T00:40:41.451Z,0
2022-09-25T00:41:41.858Z,0
2022-09-25T00:42:42.365Z,0
2022-09-25T00:43:42.565Z,0
2022-09-25T00:44:42.469Z,0
2022-09-25T00:45:43.060Z,0
2022-09-25T00:46:43.643Z,0
2022-09-25T00:47:43.264Z,0
2022-09-25T00:48:44.190Z,0
2022-09-25T00:49:45.221Z,0
2022-09-25T00:50:46.119Z,0
2022-09-25T00:51:46.481Z,0
2022-09-25T00:52:47.564Z,0
2022-09-25T00:53:47.764Z,0
2022-09-25T00:54:47.421Z,0
2022-09-25T00:55:48.058Z,0
2022-09-25T00:56:48.741Z,0
2022-09-25T00:57:48.728Z,0
2022-09-25T00:58:49.657Z,0
2022-09-25T00:59:50.381Z,0
2022-09-25T01:00:51.394Z,0
2022-09-25T01:01:52.138Z,0
2022-09-25T01:02:52.811Z,0
2022-09-25T01:03:52.350Z,0
2022-09-25T01:04:53.928Z,0
2022-09-25T01:05:53.785Z,0
2022-09-25T01:06:54.004Z,0
2022-09-25T01:07:54.645Z,0
2022-09-25T01:08:55.244Z,0
2022-09-25T01:09:55.791Z,0
2022-09-25T01:10:56.412Z,0
2022-09-25T01:11:57.649Z,0
2022-09-25T01:12:58.231Z,0
2022-09-25T01:13:58.880Z,0
2022-09-25T01:14:59.076Z,0
2022-09-25T01:15:59.989Z,0
2022-09-25T01:17:00.354Z,0
2022-09-25T01:18:00.958Z,0
2022-09-25T01:19:00.575Z,0
2022-09-25T01:20:04.044Z,0
2022-09-25T01:21:01.969Z,0
2022-09-25T01:22:02.888Z,0
2022-09-25T01:23:03.078Z,0
2022-09-25T01:24:04.053Z,0
2022-09-25T01:25:04.627Z,0
2022-09-25T01:26:06.138Z,0
2022-09-25T01:27:06.307Z,0
2022-09-25T01:28:07.230Z,0
2022-09-25T01:29:08.148Z,0
2022-09-25T01:30:09.283Z,0
2022-09-25T01:31:09.626Z,0
2022-09-25T01:32:09.036Z,0
2022-09-25T01:33:09.931Z,0
2022-09-25T01:34:11.262Z,0
2022-09-25T01:35:11.773Z,0
2022-09-25T01:36:11.397Z,0
2022-09-25T01:37:12.316Z,0
2022-09-25T01:38:12.933Z,0
2022-09-25T01:39:13.849Z,0
2022-09-25T01:40:14.470Z,0
2022-09-25T01:41:15.048Z,0
2022-09-25T01:42:14.986Z,0
2022-09-25T01:43:14.601Z,0
2022-09-25T01:44:15.513Z,0
2022-09-25T01:45:16.009Z,0
2022-09-25T01:46:16.239Z,0
2022-09-25T01:47:15.829Z,0
2022-09-25T01:48:17.055Z,0
2022-09-25T01:49:16.957Z,0
2022-09-25T01:50:17.653Z,0
2022-09-25T01:51:17.549Z,0
2022-09-25T01:52:17.892Z,0
2022-09-25T01:53:19.104Z,0
2022-09-25T01:54:19.165Z,0
2022-09-25T01:55:20.098Z,0
2022-09-25T01:56:20.714Z,0
2022-09-25T01:57:21.686Z,0
2022-09-25T01:58:22.188Z,0
2022-09-25T01:59:22.091Z,0
2022-09-25T02:00:23.111Z,0
2022-09-25T02:01:23.561Z,0
2022-09-25T02:02:23.619Z,0
2022-09-25T02:03:24.327Z,0
2022-09-25T02:04:24.967Z,0
2022-09-25T02:05:26.171Z,0
2022-09-25T02:06:26.076Z,0
2022-09-25T02:07:26.971Z,0
2022-09-25T02:08:27.930Z,0
2022-09-25T02:09:28.850Z,0
2022-09-25T02:10:30.181Z,0
2022-09-25T02:11:30.675Z,0
2022-09-25T02:12:30.760Z,0
2022-09-25T02:13:31.054Z,0
2022-09-25T02:14:30.969Z,0
2022-09-25T02:15:32.187Z,0
2022-09-25T02:16:32.897Z,0
2022-09-25T02:17:32.953Z,0
2022-09-25T02:18:33.152Z,0
2022-09-25T02:19:33.345Z,0
2022-09-25T02:20:33.652Z,0
2022-09-25T02:21:33.277Z,0
2022-09-25T02:22:34.202Z,0
2022-09-25T02:23:34.821Z,0
2022-09-25T02:24:35.741Z,0
2022-09-25T02:25:36.367Z,0
2022-09-25T02:26:36.990Z,0
2022-09-25T02:27:38.711Z,0
2022-09-25T02:28:38.938Z,0
2022-09-25T02:29:38.854Z,0
2022-09-25T02:30:39.908Z,0
2022-09-25T02:31:39.649Z,0
2022-09-25T02:32:41.188Z,0
2022-09-25T02:33:40.808Z,0
2022-09-25T02:34:41.727Z,0
2022-09-25T02:35:42.670Z,0
2022-09-25T02:36:43.340Z,0
2022-09-25T02:37:44.545Z,0
2022-09-25T02:38:45.485Z,0
2022-09-25T02:39:45.987Z,0
2022-09-25T02:40:46.663Z,0
2022-09-25T02:41:47.276Z,0
2022-09-25T02:42:47.811Z,0
2022-09-25T02:43:48.121Z,0
2022-09-25T02:44:48.336Z,0
2022-09-25T02:45:49.643Z,0
2022-09-25T02:46:49.621Z,0
2022-09-25T02:47:49.539Z,0
2022-09-25T02:48:49.882Z,0
2022-09-25T02:49:49.921Z,0
2022-09-25T02:50:51.044Z,0
2022-09-25T02:51:51.686Z,0
2022-09-25T02:52:52.601Z,0
2022-09-25T02:53:52.817Z,0
2022-09-25T02:54:53.739Z,0
2022-09-25T02:55:53.675Z,0
2022-09-25T02:56:54.290Z,0
2022-09-25T02:57:55.753Z,0
2022-09-25T02:58:55.966Z,0
2022-09-25T02:59:56.457Z,0
2022-09-25T03:00:56.636Z,0
2022-09-25T03:01:56.659Z,0
2022-09-25T03:03:03.928Z,0
2022-09-25T03:03:57.282Z,0
2022-09-25T03:04:58.780Z,0
2022-09-25T03:05:59.428Z,0
2022-09-25T03:06:59.792Z,0
2022-09-25T03:08:00.726Z,0
2022-09-25T03:09:00.941Z,0
2022-09-25T03:10:01.862Z,0
2022-09-25T03:11:02.916Z,0
2022-09-25T03:12:03.841Z,0
2022-09-25T03:13:04.076Z,0
2022-09-25T03:14:04.331Z,0
2022-09-25T03:15:04.950Z,0
2022-09-25T03:16:04.859Z,0
2022-09-25T03:17:05.488Z,0
2022-09-25T03:18:06.404Z,0
2022-09-25T03:19:06.750Z,0
2022-09-25T03:20:07.954Z,0
2022-09-25T03:21:08.094Z,0
2022-09-25T03:22:09.583Z,0
2022-09-25T03:23:09.799Z,0
2022-09-25T03:24:10.172Z,0
2022-09-25T03:25:10.405Z,0
2022-09-25T03:26:11.001Z,0
2022-09-25T03:27:11.528Z,0
2022-09-25T03:28:12.508Z,0
2022-09-25T03:29:12.733Z,0
2022-09-25T03:30:13.651Z,0
2022-09-25T03:31:14.368Z,0
2022-09-25T03:32:15.132Z,0
2022-09-25T03:33:16.075Z,0
2022-09-25T03:34:16.924Z,0
2022-09-25T03:35:17.144Z,0
2022-09-25T03:36:17.765Z,0
2022-09-25T03:37:18.959Z,0
2022-09-25T03:38:19.156Z,0
2022-09-25T03:39:19.797Z,0
2022-09-25T03:40:21.320Z,0
2022-09-25T03:41:21.528Z,0
2022-09-25T03:42:21.753Z,0
2022-09-25T03:43:22.216Z,0
2022-09-25T03:44:22.599Z,0
2022-09-25T03:45:23.530Z,0
2022-09-25T03:46:23.405Z,0
2022-09-25T03:47:24.153Z,0
2022-09-25T03:48:25.070Z,0
2022-09-25T03:49:25.994Z,0
2022-09-25T03:50:26.286Z,0
2022-09-25T03:51:26.713Z,0
2022-09-25T03:52:26.636Z,0
2022-09-25T03:53:27.836Z,0
2022-09-25T03:54:28.760Z,0
2022-09-25T03:55:28.978Z,0
2022-09-25T03:56:30.195Z,0
2022-09-25T03:57:29.545Z,0
2022-09-25T03:58:31.080Z,0
2022-09-25T03:59:31.668Z,0
2022-09-25T04:00:31.888Z,0
2022-09-25T04:01:31.869Z,0
2022-09-25T04:02:33.252Z,0
2022-09-25T04:03:33.696Z,0
2022-09-25T04:04:34.593Z,0
2022-09-25T04:05:35.208Z,0
2022-09-25T04:06:36.143Z,0
2022-09-25T04:07:35.767Z,0
2022-09-25T04:08:36.816Z,0
2022-09-25T04:09:38.318Z,0
2022-09-25T04:10:37.665Z,0
2022-09-25T04:11:38.724Z,0
2022-09-25T04:12:38.767Z,0
2022-09-25T04:13:40.002Z,0
2022-09-25T04:14:40.497Z,0
2022-09-25T04:15:40.428Z,0
2022-09-25T04:16:41.358Z,0
2022-09-25T04:17:40.889Z,0
2022-09-25T04:18:41.842Z,0
2022-09-25T04:19:42.041Z,0
2022-09-25T04:20:41.960Z,0
2022-09-25T04:21:42.678Z,0
2022-09-25T04:22:43.897Z,0
2022-09-25T04:23:43.797Z,0
2022-09-25T04:24:44.119Z,0
2022-09-25T04:25:45.041Z,0
2022-09-25T04:26:45.673Z,0
2022-09-25T04:27:45.996Z,0
2022-09-25T04:28:47.599Z,0
2022-09-25T04:29:47.805Z,0
2022-09-25T04:30:48.412Z,0
2022-09-25T04:31:49.182Z,0
2022-09-25T04:32:48.616Z,0
2022-09-25T04:33:49.537Z,0
2022-09-25T04:34:50.025Z,0
2022-09-25T04:35:49.948Z,0
2022-09-25T04:36:50.566Z,0
2022-09-25T04:37:51.759Z,0
2022-09-25T04:38:52.662Z,0
2022-09-25T04:39:52.285Z,0
2022-09-25T04:40:53.572Z,0
2022-09-25T04:41:53.384Z,0
2022-09-25T04:42:54.303Z,0
2022-09-25T04:43:54.640Z,0
2022-09-25T04:44:54.574Z,0
2022-09-25T04:45:56.039Z,0
2022-09-25T04:46:56.548Z,0
2022-09-25T04:47:56.481Z,0
2022-09-25T04:48:57.398Z,0
2022-09-25T04:49:58.036Z,0
2022-09-25T04:50:58.364Z,0
2022-09-25T04:51:58.814Z,0
2022-09-25T04:53:00.318Z,4
2022-09-25T04:54:00.236Z,4
2022-09-25T04:55:01.182Z,4
2022-09-25T04:56:00.823Z,0
2022-09-25T04:57:01.638Z,0
2022-09-25T04:58:10.462Z,4
2022-09-25T04:59:01.799Z,4
2022-09-25T05:00:02.044Z,4
2022-09-25T05:01:03.337Z,4
2022-09-25T05:02:03.714Z,4
2022-09-25T05:03:03.736Z,8
2022-09-25T05:04:08.457Z,4
2022-09-25T05:05:05.090Z,8
2022-09-25T05:06:05.049Z,8
2022-09-25T05:07:05.952Z,8
2022-09-25T05:08:06.577Z,12
2022-09-25T05:09:07.194Z,8
2022-09-25T05:10:08.684Z,12
2022-09-25T05:11:09.191Z,12
2022-09-25T05:12:09.553Z,16
2022-09-25T05:13:09.481Z,16
2022-09-25T05:14:10.425Z,20
2022-09-25T05:15:10.940Z,20
2022-09-25T05:16:11.228Z,20
2022-09-25T05:17:11.510Z,24
2022-09-25T05:18:12.156Z,20
2022-09-25T05:19:13.053Z,20
2022-09-25T05:20:14.259Z,24
2022-09-25T05:21:14.180Z,24
2022-09-25T05:22:15.166Z,32
2022-09-25T05:23:16.659Z,32
2022-09-25T05:24:17.292Z,36
2022-09-25T05:25:17.491Z,36
2022-09-25T05:26:17.837Z,40
2022-09-25T05:27:19.161Z,44
2022-09-25T05:28:19.374Z,44
2022-09-25T05:29:20.361Z,48
2022-09-25T05:30:20.285Z,48
2022-09-25T05:31:21.122Z,48
2022-09-25T05:32:21.135Z,52
2022-09-25T05:33:22.036Z,52
2022-09-25T05:34:22.640Z,52
2022-09-25T05:35:23.138Z,56
2022-09-25T05:36:23.339Z,60
2022-09-25T05:37:23.052Z,64
2022-09-25T05:38:23.697Z,72
2022-09-25T05:39:25.931Z,76
2022-09-25T05:40:24.934Z,76
2022-09-25T05:41:25.973Z,80
2022-09-25T05:42:27.461Z,84
2022-09-25T05:43:27.373Z,88
2022-09-25T05:44:28.633Z,88
2022-09-25T05:45:28.826Z,88
2022-09-25T05:46:29.958Z,88
2022-09-25T05:47:29.944Z,88
2022-09-25T05:48:30.871Z,88
2022-09-25T05:49:31.490Z,88
2022-09-25T05:50:32.711Z,88
2022-09-25T05:51:33.333Z,96
2022-09-25T05:52:33.388Z,104
2022-09-25T05:53:34.601Z,108
2022-09-25T05:54:35.218Z,108
2022-09-25T05:55:36.721Z,104
2022-09-25T05:56:36.637Z,92
2022-09-25T05:57:37.849Z,92
2022-09-25T05:58:37.765Z,84
2022-09-25T05:59:38.086Z,76
2022-09-25T06:00:38.510Z,76
2022-09-25T06:01:38.297Z,72
2022-09-25T06:02:39.653Z,76
2022-09-25T06:03:39.643Z,76
2022-09-25T06:04:40.841Z,84
2022-09-25T06:05:40.745Z,96
2022-09-25T06:06:41.662Z,108
2022-09-25T06:07:41.575Z,120
2022-09-25T06:08:42.677Z,132
2022-09-25T06:09:43.317Z,140
2022-09-25T06:10:43.518Z,152
2022-09-25T06:11:44.154Z,156
2022-09-25T06:12:44.660Z,168
2022-09-25T06:13:45.302Z,180
2022-09-25T06:14:45.602Z,184
2022-09-25T06:15:47.186Z,184
2022-09-25T06:16:47.090Z,180
2022-09-25T06:17:48.313Z,180
2022-09-25T06:18:48.395Z,184
2022-09-25T06:19:49.351Z,188
2022-09-25T06:20:50.254Z,192
2022-09-25T06:21:51.182Z,196
2022-09-25T06:22:52.188Z,192
2022-09-25T06:23:52.708Z,188
2022-09-25T06:24:52.904Z,188
2022-09-25T06:25:52.525Z,188
2022-09-25T06:26:53.448Z,192
2022-09-25T06:27:53.983Z,192
2022-09-25T06:28:54.185Z,192
2022-09-25T06:29:54.985Z,192
2022-09-25T06:30:54.888Z,188
2022-09-25T06:31:55.710Z,184
2022-09-25T06:32:56.029Z,184
2022-09-25T06:33:56.530Z,192
2022-09-25T06:34:56.435Z,200
2022-09-25T06:35:57.941Z,216
2022-09-25T06:36:58.162Z,236
2022-09-25T06:37:58.805Z,252
2022-09-25T06:38:59.701Z,272
2022-09-25T06:40:00.628Z,300
2022-09-25T06:41:06.095Z,340
2022-09-25T06:42:01.177Z,380
2022-09-25T06:43:01.895Z,436
2022-09-25T06:44:03.119Z,496
2022-09-25T06:45:03.381Z,564
2022-09-25T06:46:03.774Z,616
2022-09-25T06:47:04.558Z,636
2022-09-25T06:48:04.869Z,640
2022-09-25T06:49:05.506Z,644
2022-09-25T06:50:06.431Z,648
2022-09-25T06:51:07.057Z,660
2022-09-25T06:52:08.556Z,656
2022-09-25T06:53:08.872Z,664
2022-09-25T06:54:09.246Z,656
2022-09-25T06:55:09.505Z,644
2022-09-25T06:56:10.138Z,644
2022-09-25T06:57:10.754Z,588
2022-09-25T06:58:11.691Z,480
2022-09-25T06:59:11.912Z,388
2022-09-25T07:00:12.698Z,344
2022-09-25T07:01:20.440Z,300
2022-09-25T07:02:14.519Z,272
2022-09-25T07:03:15.127Z,252
2022-09-25T07:04:16.181Z,232
2022-09-25T07:05:16.414Z,224
2022-09-25T07:06:16.640Z,212
2022-09-25T07:07:17.598Z,208
2022-09-25T07:08:18.117Z,204
2022-09-25T07:09:18.016Z,200
2022-09-25T07:10:19.219Z,196
2022-09-25T07:11:19.588Z,196
2022-09-25T07:12:19.796Z,196
2022-09-25T07:13:19.763Z,196
2022-09-25T07:14:20.687Z,196
2022-09-25T07:15:20.931Z,204
2022-09-25T07:16:21.627Z,216
2022-09-25T07:17:21.357Z,228
2022-09-25T07:18:22.271Z,240
2022-09-25T07:19:27.066Z,260
2022-09-25T07:20:23.589Z,272
2022-09-25T07:21:24.810Z,296
2022-09-25T07:22:24.432Z,324
2022-09-25T07:23:26.020Z,348
2022-09-25T07:24:25.934Z,380
2022-09-25T07:25:25.847Z,412
2022-09-25T07:26:27.076Z,448
2022-09-25T07:27:27.989Z,480
2022-09-25T07:28:29.016Z,504
2022-09-25T07:29:29.519Z,524
2022-09-25T07:30:30.122Z,540
2022-09-25T07:31:30.547Z,556
2022-09-25T07:32:30.849Z,568
2022-09-25T07:33:30.763Z,584
2022-09-25T07:34:31.387Z,604
2022-09-25T07:35:31.037Z,632
2022-09-25T07:36:31.662Z,680
2022-09-25T07:37:32.313Z,728
2022-09-25T07:38:33.590Z,780
2022-09-25T07:39:34.520Z,836
2022-09-25T07:40:35.549Z,884
2022-09-25T07:41:35.033Z,940
2022-09-25T07:42:35.974Z,992
2022-09-25T07:43:36.726Z,1044
2022-09-25T07:44:54.666Z,1076
2022-09-25T07:45:38.197Z,1092
2022-09-25T07:46:38.059Z,1124
2022-09-25T07:47:39.408Z,1160
2022-09-25T07:48:40.080Z,1204
2022-09-25T07:49:40.704Z,1248
2022-09-25T07:50:41.931Z,1296
2022-09-25T07:51:41.858Z,1340
2022-09-25T07:52:42.770Z,1364
2022-09-25T07:53:43.119Z,1332
2022-09-25T07:54:44.046Z,1316
2022-09-25T07:55:44.374Z,1292
2022-09-25T07:56:46.002Z,1272
2022-09-25T07:57:46.204Z,1264
2022-09-25T07:58:47.447Z,1248
2022-09-25T07:59:47.085Z,1196
2022-09-25T08:00:48.056Z,1136
2022-09-25T08:01:59.850Z,1076
2022-09-25T08:02:49.426Z,1056
2022-09-25T08:03:49.182Z,1048
2022-09-25T08:04:49.829Z,1048
2022-09-25T08:05:50.749Z,1032
2022-09-25T08:06:51.674Z,992
2022-09-25T08:07:52.597Z,924
2022-09-25T08:08:52.814Z,844
2022-09-25T08:09:52.742Z,784
2022-09-25T08:10:53.711Z,740
2022-09-25T08:11:53.913Z,712
2022-09-25T08:12:55.130Z,704
2022-09-25T08:13:55.894Z,704
2022-09-25T08:14:56.114Z,712
2022-09-25T08:15:57.099Z,716
2022-09-25T08:16:57.493Z,724
2022-09-25T08:17:58.119Z,728
2022-09-25T08:18:59.058Z,736
2022-09-25T08:20:00.002Z,740
2022-09-25T08:21:00.648Z,744
2022-09-25T08:22:01.853Z,744
2022-09-25T08:23:02.199Z,740
2022-09-25T08:24:03.306Z,740
2022-09-25T08:25:04.243Z,744
2022-09-25T08:26:04.580Z,756
2022-09-25T08:27:05.808Z,772
2022-09-25T08:28:06.020Z,796
2022-09-25T08:29:06.526Z,824
2022-09-25T08:30:07.029Z,860
2022-09-25T08:31:07.406Z,900
2022-09-25T08:32:07.712Z,944
2022-09-25T08:33:09.868Z,988
2022-09-25T08:34:47.651Z,1092
2022-09-25T08:35:08.879Z,1116
2022-09-25T08:36:09.216Z,1192
2022-09-25T08:37:09.584Z,1260
2022-09-25T08:38:10.235Z,1324
2022-09-25T08:39:10.892Z,1396
2022-09-25T08:40:11.548Z,1476
2022-09-25T08:41:12.905Z,1556
2022-09-25T08:42:13.419Z,1604
2022-09-25T08:43:13.349Z,1612
2022-09-25T08:44:14.368Z,1572
2022-09-25T08:45:34.039Z,1532
2022-09-25T08:46:15.924Z,1540
2022-09-25T08:47:19.414Z,1544
2022-09-25T08:48:16.691Z,1568
2022-09-25T08:49:17.899Z,1596
2022-09-25T08:50:17.806Z,1608
2022-09-25T08:51:18.735Z,1672
2022-09-25T08:52:19.841Z,1696
2022-09-25T08:53:19.771Z,1496
2022-09-25T08:54:21.154Z,1468
2022-09-25T08:55:21.780Z,1492
2022-09-25T08:56:22.990Z,1568
2022-09-25T08:57:23.321Z,1576
2022-09-25T08:58:24.230Z,1512
2022-09-25T08:59:24.863Z,1416
2022-09-25T09:00:25.491Z,1444
2022-09-25T09:01:26.825Z,1700
2022-09-25T09:02:27.160Z,1740
2022-09-25T09:03:28.147Z,1840
2022-09-25T09:04:28.585Z,1988
2022-09-25T09:05:28.510Z,2032
2022-09-25T09:06:29.437Z,2044
2022-09-25T09:07:37.753Z,2068
2022-09-25T09:08:30.083Z,2188
2022-09-25T09:09:31.031Z,2320
2022-09-25T09:10:31.967Z,2196
2022-09-25T09:11:32.599Z,2052
2022-09-25T09:12:32.504Z,1912
2022-09-25T09:13:33.728Z,1804
2022-09-25T09:14:34.202Z,1748
2022-09-25T09:15:33.970Z,1720
2022-09-25T09:16:35.734Z,1676
2022-09-25T09:17:35.937Z,1664
2022-09-25T09:18:37.140Z,1636
2022-09-25T09:19:37.350Z,1560
2022-09-25T09:20:37.555Z,1440
2022-09-25T09:21:37.185Z,1296
2022-09-25T09:22:38.394Z,1140
2022-09-25T09:23:38.599Z,1004
2022-09-25T09:24:39.347Z,880
2022-09-25T09:25:40.112Z,796
2022-09-25T09:26:40.437Z,772
2022-09-25T09:27:41.941Z,764
2022-09-25T09:28:42.577Z,772
2022-09-25T09:29:43.900Z,788
2022-09-25T09:30:43.680Z,816
2022-09-25T09:31:45.044Z,852
2022-09-25T09:32:45.344Z,880
2022-09-25T09:33:45.961Z,892
2022-09-25T09:35:15.471Z,964
2022-09-25T09:35:47.432Z,980
2022-09-25T09:36:48.077Z,1036
2022-09-25T09:37:49.280Z,1084
2022-09-25T09:38:49.787Z,1108
2022-09-25T09:39:49.998Z,1092
2022-09-25T09:40:50.692Z,1084
2022-09-25T09:41:50.722Z,1052
2022-09-25T09:42:51.951Z,1080
2022-09-25T09:43:57.311Z,1164
2022-09-25T09:44:52.860Z,1364
2022-09-25T09:45:53.164Z,1492
2022-09-25T09:46:53.385Z,1564
2022-09-25T09:47:53.671Z,1448
2022-09-25T09:48:54.595Z,1416
2022-09-25T09:49:55.517Z,1516
2022-09-25T09:51:03.321Z,1680
2022-09-25T09:51:57.525Z,1852
2022-09-25T09:52:56.857Z,2012
2022-09-25T09:53:57.486Z,1892
2022-09-25T09:54:58.839Z,1812
2022-09-25T09:55:59.074Z,1820
2022-09-25T09:56:59.815Z,2004
2022-09-25T09:58:00.766Z,2432
2022-09-25T09:59:00.987Z,2712
2022-09-25T10:00:10.990Z,2580
2022-09-25T10:01:16.213Z,2352
2022-09-25T10:02:04.087Z,2020
2022-09-25T10:03:04.084Z,1772
2022-09-25T10:04:04.432Z,1512
2022-09-25T10:05:04.569Z,1432
2022-09-25T10:06:04.778Z,1380
2022-09-25T10:07:05.009Z,1344
2022-09-25T10:08:05.225Z,1308
2022-09-25T10:09:06.427Z,1288
2022-09-25T10:10:06.672Z,1260
2022-09-25T10:11:06.616Z,1212
2022-09-25T10:12:06.844Z,1180
2022-09-25T10:13:12.289Z,1156
2022-09-25T10:14:08.044Z,1160
2022-09-25T10:15:08.663Z,1220
2022-09-25T10:16:09.337Z,1412
2022-09-25T10:17:09.921Z,1548
2022-09-25T10:18:10.511Z,1552
2022-09-25T10:19:11.038Z,1672
2022-09-25T10:20:10.985Z,1780
2022-09-25T10:21:12.210Z,1708
2022-09-25T10:22:15.797Z,1592
2022-09-25T10:23:16.294Z,1424
2022-09-25T10:24:13.594Z,1152
2022-09-25T10:25:13.744Z,956
2022-09-25T10:26:13.682Z,788
2022-09-25T10:27:14.612Z,692
2022-09-25T10:28:15.546Z,652
2022-09-25T10:29:15.759Z,644
2022-09-25T10:30:16.526Z,660
2022-09-25T10:31:17.378Z,692
2022-09-25T10:32:18.263Z,732
2022-09-25T10:33:19.236Z,776
2022-09-25T10:34:19.945Z,808
2022-09-25T10:35:20.970Z,820
2022-09-25T10:36:21.197Z,824
2022-09-25T10:37:21.403Z,828
2022-09-25T10:38:21.625Z,816
2022-09-25T10:39:54.715Z,788
2022-09-25T10:40:23.218Z,776
2022-09-25T10:41:23.633Z,752
2022-09-25T10:42:24.130Z,724
2022-09-25T10:43:24.339Z,688
2022-09-25T10:44:24.703Z,628
2022-09-25T10:45:25.003Z,548
2022-09-25T10:46:25.552Z,480
2022-09-25T10:47:26.199Z,416
2022-09-25T10:48:26.802Z,360
2022-09-25T10:49:27.309Z,328
2022-09-25T10:50:27.293Z,312
2022-09-25T10:51:28.892Z,308
2022-09-25T10:52:28.499Z,304
2022-09-25T10:53:29.717Z,304
2022-09-25T10:54:30.213Z,308
2022-09-25T10:55:31.086Z,308
2022-09-25T10:56:30.714Z,308
2022-09-25T10:57:31.367Z,300
2022-09-25T10:58:32.299Z,280
2022-09-25T10:59:33.835Z,264
2022-09-25T11:00:34.386Z,252
2022-09-25T11:01:34.593Z,244
2022-09-25T11:02:35.364Z,236
2022-09-25T11:03:35.472Z,236
2022-09-25T11:04:36.413Z,232
2022-09-25T11:05:36.875Z,236
2022-09-25T11:06:37.797Z,236
2022-09-25T11:07:38.722Z,240
2022-09-25T11:08:39.649Z,236
2022-09-25T11:09:40.149Z,240
2022-09-25T11:10:40.474Z,236
2022-09-25T11:11:40.704Z,236
2022-09-25T11:12:40.921Z,228
2022-09-25T11:13:40.865Z,228
2022-09-25T11:14:41.774Z,228
2022-09-25T11:15:42.275Z,240
2022-09-25T11:16:43.692Z,256
2022-09-25T11:17:44.216Z,272
2022-09-25T11:18:45.436Z,284
2022-09-25T11:19:46.355Z,292
2022-09-25T11:20:47.007Z,296
2022-09-25T11:21:48.233Z,296
2022-09-25T11:22:48.208Z,300
2022-09-25T11:23:49.109Z,296
2022-09-25T11:24:49.305Z,296
2022-09-25T11:25:49.445Z,292
2022-09-25T11:26:50.371Z,284
2022-09-25T11:27:50.367Z,284
2022-09-25T11:28:50.423Z,280
2022-09-25T11:29:50.781Z,280
2022-09-25T11:30:52.928Z,284
2022-09-25T11:31:53.257Z,292
2022-09-25T11:32:58.855Z,308
2022-09-25T11:33:55.087Z,324
2022-09-25T11:34:55.390Z,344
2022-09-25T11:35:56.197Z,368
2022-09-25T11:36:56.419Z,396
2022-09-25T11:37:57.081Z,424
2022-09-25T11:38:57.005Z,460
2022-09-25T11:39:57.767Z,496
2022-09-25T11:40:59.246Z,520
2022-09-25T11:41:59.462Z,556
2022-09-25T11:43:00.090Z,624
2022-09-25T11:44:04.002Z,696
2022-09-25T11:45:01.629Z,732
2022-09-25T11:46:02.788Z,752
2022-09-25T11:47:02.884Z,768
2022-09-25T11:48:03.150Z,792
2022-09-25T11:49:03.108Z,820
2022-09-25T11:50:03.945Z,852
2022-09-25T11:51:04.573Z,868
2022-09-25T11:52:06.540Z,864
2022-09-25T11:53:05.457Z,848
2022-09-25T11:54:40.180Z,800
2022-09-25T11:55:06.238Z,784
2022-09-25T11:56:07.259Z,756
2022-09-25T11:57:07.173Z,748
2022-09-25T11:58:07.532Z,740
2022-09-25T11:59:09.025Z,744
2022-09-25T12:00:09.276Z,748
2022-09-25T12:01:10.752Z,752
2022-09-25T12:02:11.401Z,752
2022-09-25T12:03:11.407Z,740
2022-09-25T12:04:11.495Z,720
2022-09-25T12:05:12.412Z,732
2022-09-25T12:06:13.445Z,740
2022-09-25T12:07:14.364Z,740
2022-09-25T12:08:14.970Z,756
2022-09-25T12:09:15.657Z,804
2022-09-25T12:10:16.728Z,808
2022-09-25T12:11:17.372Z,832
2022-09-25T12:12:17.603Z,888
2022-09-25T12:13:18.531Z,948
2022-09-25T12:14:19.176Z,1112
2022-09-25T12:15:19.678Z,1296
2022-09-25T12:16:19.995Z,1500
2022-09-25T12:17:21.285Z,1552
2022-09-25T12:18:22.264Z,1532
2022-09-25T12:19:22.352Z,1512
2022-09-25T12:20:23.074Z,1400
2022-09-25T12:21:24.367Z,1340
2022-09-25T12:22:24.266Z,1320
2022-09-25T12:23:24.888Z,1260
2022-09-25T12:24:29.250Z,1216
2022-09-25T12:25:25.928Z,1176
2022-09-25T12:26:26.938Z,1132
2022-09-25T12:27:27.152Z,1068
2022-09-25T12:28:27.376Z,1004
2022-09-25T12:29:27.297Z,932
2022-09-25T12:30:28.242Z,860
2022-09-25T12:31:29.877Z,784
2022-09-25T12:32:29.526Z,744
2022-09-25T12:33:30.484Z,704
2022-09-25T12:34:31.687Z,652
2022-09-25T12:35:32.600Z,596
2022-09-25T12:36:32.430Z,576
2022-09-25T12:37:38.471Z,572
2022-09-25T12:38:34.146Z,564
2022-09-25T12:39:35.071Z,568
2022-09-25T12:40:36.565Z,576
2022-09-25T12:41:37.161Z,588
2022-09-25T12:42:36.765Z,616
2022-09-25T12:43:37.382Z,648
2022-09-25T12:44:39.019Z,672
2022-09-25T12:45:39.346Z,684
2022-09-25T12:46:39.869Z,708
2022-09-25T12:47:40.097Z,744
2022-09-25T12:48:40.640Z,776
2022-09-25T12:49:41.140Z,820
2022-09-25T12:50:41.361Z,864
2022-09-25T12:51:41.587Z,876
2022-09-25T12:52:41.480Z,864
2022-09-25T12:53:42.404Z,864
2022-09-25T12:54:42.333Z,864
2022-09-25T12:55:43.294Z,868
2022-09-25T12:56:43.618Z,884
2022-09-25T12:57:44.242Z,928
2022-09-25T12:58:45.164Z,968
2022-09-25T12:59:52.385Z,1028
2022-09-25T13:00:45.593Z,1060
2022-09-25T13:01:46.726Z,1108
2022-09-25T13:02:46.540Z,1148
2022-09-25T13:03:46.777Z,1192
2022-09-25T13:04:46.694Z,1288
2022-09-25T13:05:47.623Z,1428
2022-09-25T13:06:48.358Z,1548
2022-09-25T13:07:48.986Z,1612
2022-09-25T13:08:49.913Z,1548
2022-09-25T13:09:50.566Z,1476
2022-09-25T13:10:51.199Z,1456
2022-09-25T13:11:52.417Z,1484
2022-09-25T13:12:52.920Z,1692
2022-09-25T13:13:53.150Z,1676
2022-09-25T13:14:53.053Z,1756
2022-09-25T13:15:54.037Z,1812
2022-09-25T13:16:54.999Z,1636
2022-09-25T13:17:54.947Z,1480
2022-09-25T13:18:59.174Z,1356
2022-09-25T13:19:55.943Z,1336
2022-09-25T13:20:56.145Z,1476
2022-09-25T13:21:56.363Z,1640
2022-09-25T13:22:56.695Z,1412
2022-09-25T13:23:57.323Z,1420
2022-09-25T13:24:58.243Z,1324
2022-09-25T13:25:59.461Z,1272
2022-09-25T13:26:59.937Z,1192
2022-09-25T13:27:59.864Z,1140
2022-09-25T13:29:00.489Z,1096
2022-09-25T13:30:01.118Z,976
2022-09-25T13:31:06.810Z,848
2022-09-25T13:32:03.132Z,756
2022-09-25T13:33:04.054Z,712
2022-09-25T13:34:05.093Z,676
2022-09-25T13:35:05.453Z,632
2022-09-25T13:36:06.112Z,580
2022-09-25T13:37:07.194Z,528
2022-09-25T13:38:07.116Z,464
2022-09-25T13:39:08.315Z,360
2022-09-25T13:40:08.010Z,264
2022-09-25T13:41:09.007Z,196
2022-09-25T13:42:09.921Z,148
2022-09-25T13:43:10.869Z,132
2022-09-25T13:44:12.125Z,140
2022-09-25T13:45:11.754Z,148
2022-09-25T13:46:13.207Z,168
2022-09-25T13:47:13.736Z,184
2022-09-25T13:48:18.456Z,204
2022-09-25T13:49:15.135Z,232
2022-09-25T13:50:15.364Z,272
2022-09-25T13:51:15.299Z,300
2022-09-25T13:52:16.803Z,328
2022-09-25T13:53:16.427Z,364
2022-09-25T13:54:18.051Z,408
2022-09-25T13:55:18.694Z,472
2022-09-25T13:56:19.596Z,528
2022-09-25T13:57:20.028Z,580
2022-09-25T13:58:20.381Z,652
2022-09-25T13:59:21.395Z,676
2022-09-25T14:00:22.270Z,736
2022-09-25T14:01:23.372Z,824
2022-09-25T14:02:23.888Z,944
2022-09-25T14:03:24.208Z,1180
2022-09-25T14:04:24.465Z,1184
2022-09-25T14:05:24.383Z,1004
2022-09-25T14:06:25.305Z,984
2022-09-25T14:07:26.557Z,952
2022-09-25T14:08:27.172Z,936
2022-09-25T14:09:28.080Z,944
2022-09-25T14:10:34.749Z,936
2022-09-25T14:11:29.244Z,904